sensor_id;sensor_type;location;lat;lon;timestamp;temperature;humidity
40808;DHT22;26523;52.504;13.498;2022-12-29T00:02:08;7.80;99.90
40808;DHT22;26523;52.504;13.498;2022-12-29T00:04:34;7.70;99.90
40808;DHT22;26523;52.504;13.498;2022-12-29T00:07:00;7.70;99.90
40808;DHT22;26523;52.504;13.498;2022-12-29T00:09:26;7.80;99.90
40808;DHT22;26523;52.504;13.498;2022-12-29T00:11:52;7.70;99.90
40808;DHT22;26523;52.504;13.498;2022-12-29T00:14:18;7.80;99.90
40808;DHT22;26523;52.504;13.498;2022-12-29T00:17:03;7.70;99.90
40808;DHT22;26523;52.504;13.498;2022-12-29T00:19:28;7.80;99.90
40808;DHT22;26523;52.504;13.498;2022-12-29T00:22:14;7.80;99.90
40808;DHT22;26523;52.504;13.498;2022-12-29T00:24:58;7.80;99.90
40808;DHT22;26523;52.504;13.498;2022-12-29T00:27:43;7.80;99.90
40808;DHT22;26523;52.504;13.498;2022-12-29T00:30:27;7.80;99.90
40808;DHT22;26523;52.504;13.498;2022-12-29T00:33:19;7.90;99.90
40808;DHT22;26523;52.504;13.498;2022-12-29T00:36:32;7.90;99.90
40808;DHT22;26523;52.504;13.498;2022-12-29T00:39:16;7.90;99.90
40808;DHT22;26523;52.504;13.498;2022-12-29T00:42:02;8.00;99.90
40808;DHT22;26523;52.504;13.498;2022-12-29T00:45:04;8.00;99.90
40808;DHT22;26523;52.504;13.498;2022-12-29T00:47:30;8.00;99.90
40808;DHT22;26523;52.504;13.498;2022-12-29T00:49:56;8.00;99.90
40808;DHT22;26523;52.504;13.498;2022-12-29T00:52:22;8.00;99.90
40808;DHT22;26523;52.504;13.498;2022-12-29T00:54:47;8.10;99.90
40808;DHT22;26523;52.504;13.498;2022-12-29T00:57:13;8.10;99.90
40808;DHT22;26523;52.504;13.498;2022-12-29T00:59:40;8.10;99.90
40808;DHT22;26523;52.504;13.498;2022-12-29T01:02:07;8.10;99.90
40808;DHT22;26523;52.504;13.498;2022-12-29T01:04:32;8.20;99.90
40808;DHT22;26523;52.504;13.498;2022-12-29T01:06:58;8.10;99.90
40808;DHT22;26523;52.504;13.498;2022-12-29T01:09:24;8.10;99.90
40808;DHT22;26523;52.504;13.498;2022-12-29T01:12:09;8.10;99.90
40808;DHT22;26523;52.504;13.498;2022-12-29T01:14:36;8.00;99.90
40808;DHT22;26523;52.504;13.498;2022-12-29T01:17:02;8.00;99.90
40808;DHT22;26523;52.504;13.498;2022-12-29T01:19:28;8.00;99.90
40808;DHT22;26523;52.504;13.498;2022-12-29T01:21:53;8.00;99.90
40808;DHT22;26523;52.504;13.498;2022-12-29T01:24:20;8.10;99.90
40808;DHT22;26523;52.504;13.498;2022-12-29T01:26:46;8.00;99.90
40808;DHT22;26523;52.504;13.498;2022-12-29T01:29:12;8.00;99.90
40808;DHT22;26523;52.504;13.498;2022-12-29T01:31:38;8.00;99.90
40808;DHT22;26523;52.504;13.498;2022-12-29T01:34:05;8.00;99.90
40808;DHT22;26523;52.504;13.498;2022-12-29T01:36:31;8.00;99.90
40808;DHT22;26523;52.504;13.498;2022-12-29T01:38:56;8.00;99.90
40808;DHT22;26523;52.504;13.498;2022-12-29T01:41:22;8.10;99.90
40808;DHT22;26523;52.504;13.498;2022-12-29T01:43:54;8.10;99.90
40808;DHT22;26523;52.504;13.498;2022-12-29T01:46:39;8.10;99.90
40808;DHT22;26523;52.504;13.498;2022-12-29T01:49:18;8.10;99.90
40808;DHT22;26523;52.504;13.498;2022-12-29T01:54:18;8.00;99.90
40808;DHT22;26523;52.504;13.498;2022-12-29T01:56:45;8.00;99.90
40808;DHT22;26523;52.504;13.498;2022-12-29T01:59:15;8.00;99.90
40808;DHT22;26523;52.504;13.498;2022-12-29T02:01:42;8.00;99.90
40808;DHT22;26523;52.504;13.498;2022-12-29T02:04:10;8.00;99.90
40808;DHT22;26523;52.504;13.498;2022-12-29T02:06:43;8.00;99.90
40808;DHT22;26523;52.504;13.498;2022-12-29T02:09:10;8.00;99.90
40808;DHT22;26523;52.504;13.498;2022-12-29T02:11:36;7.90;99.90
40808;DHT22;26523;52.504;13.498;2022-12-29T02:14:11;7.90;99.90
40808;DHT22;26523;52.504;13.498;2022-12-29T02:33:41;7.80;99.90
40808;DHT22;26523;52.504;13.498;2022-12-29T02:36:55;7.90;99.90
40808;DHT22;26523;52.504;13.498;2022-12-29T02:39:49;7.80;99.90
40808;DHT22;26523;52.504;13.498;2022-12-29T02:42:41;7.90;99.90
40808;DHT22;26523;52.504;13.498;2022-12-29T02:45:20;7.90;99.90
40808;DHT22;26523;52.504;13.498;2022-12-29T02:47:57;7.90;99.90
40808;DHT22;26523;52.504;13.498;2022-12-29T02:50:38;7.90;99.90
40808;DHT22;26523;52.504;13.498;2022-12-29T02:53:11;7.90;99.90
40808;DHT22;26523;52.504;13.498;2022-12-29T02:55:38;7.90;99.90
40808;DHT22;26523;52.504;13.498;2022-12-29T03:00:32;7.90;99.90
40808;DHT22;26523;52.504;13.498;2022-12-29T03:03:16;7.90;99.90
40808;DHT22;26523;52.504;13.498;2022-12-29T03:09:01;8.00;99.90
40808;DHT22;26523;52.504;13.498;2022-12-29T03:11:35;8.00;99.90
40808;DHT22;26523;52.504;13.498;2022-12-29T03:14:33;8.00;99.90
40808;DHT22;26523;52.504;13.498;2022-12-29T03:17:27;8.10;99.90
40808;DHT22;26523;52.504;13.498;2022-12-29T03:20:04;8.20;99.90
40808;DHT22;26523;52.504;13.498;2022-12-29T03:22:33;8.20;99.90
40808;DHT22;26523;52.504;13.498;2022-12-29T03:25:03;8.30;99.90
40808;DHT22;26523;52.504;13.498;2022-12-29T03:27:42;8.30;99.90
40808;DHT22;26523;52.504;13.498;2022-12-29T03:30:10;8.30;99.90
40808;DHT22;26523;52.504;13.498;2022-12-29T03:35:08;8.30;99.90
40808;DHT22;26523;52.504;13.498;2022-12-29T03:37:37;8.40;99.90
40808;DHT22;26523;52.504;13.498;2022-12-29T03:40:05;8.40;99.90
40808;DHT22;26523;52.504;13.498;2022-12-29T03:42:33;8.30;99.90
40808;DHT22;26523;52.504;13.498;2022-12-29T03:45:00;8.40;99.90
40808;DHT22;26523;52.504;13.498;2022-12-29T03:47:26;8.40;99.90
40808;DHT22;26523;52.504;13.498;2022-12-29T03:49:52;8.40;99.90
40808;DHT22;26523;52.504;13.498;2022-12-29T03:52:19;8.40;99.90
40808;DHT22;26523;52.504;13.498;2022-12-29T03:54:44;8.50;99.90
40808;DHT22;26523;52.504;13.498;2022-12-29T03:57:11;8.50;99.90
40808;DHT22;26523;52.504;13.498;2022-12-29T03:59:37;8.50;99.90
40808;DHT22;26523;52.504;13.498;2022-12-29T04:02:02;8.50;99.90
40808;DHT22;26523;52.504;13.498;2022-12-29T04:04:28;8.60;99.90
40808;DHT22;26523;52.504;13.498;2022-12-29T04:06:54;8.60;99.90
40808;DHT22;26523;52.504;13.498;2022-12-29T04:09:19;8.60;99.90
40808;DHT22;26523;52.504;13.498;2022-12-29T04:11:45;8.60;99.90
40808;DHT22;26523;52.504;13.498;2022-12-29T04:14:11;8.60;99.90
40808;DHT22;26523;52.504;13.498;2022-12-29T04:16:36;8.60;99.90
40808;DHT22;26523;52.504;13.498;2022-12-29T04:19:04;8.70;99.90
40808;DHT22;26523;52.504;13.498;2022-12-29T04:21:30;8.60;99.90
40808;DHT22;26523;52.504;13.498;2022-12-29T04:23:56;8.70;99.90
40808;DHT22;26523;52.504;13.498;2022-12-29T04:26:21;8.70;99.90
40808;DHT22;26523;52.504;13.498;2022-12-29T04:28:47;8.70;99.90
40808;DHT22;26523;52.504;13.498;2022-12-29T04:31:13;8.70;99.90
40808;DHT22;26523;52.504;13.498;2022-12-29T04:33:38;8.70;99.90
40808;DHT22;26523;52.504;13.498;2022-12-29T04:36:04;8.70;99.90
40808;DHT22;26523;52.504;13.498;2022-12-29T04:38:30;8.80;99.90
40808;DHT22;26523;52.504;13.498;2022-12-29T04:40:59;8.80;99.90
40808;DHT22;26523;52.504;13.498;2022-12-29T04:43:25;8.80;99.90
40808;DHT22;26523;52.504;13.498;2022-12-29T04:45:51;8.80;99.90
40808;DHT22;26523;52.504;13.498;2022-12-29T04:48:17;8.70;99.90
40808;DHT22;26523;52.504;13.498;2022-12-29T04:50:43;8.70;99.90
40808;DHT22;26523;52.504;13.498;2022-12-29T04:53:09;8.70;99.90
40808;DHT22;26523;52.504;13.498;2022-12-29T04:55:35;8.70;99.90
40808;DHT22;26523;52.504;13.498;2022-12-29T04:58:00;8.70;99.90
40808;DHT22;26523;52.504;13.498;2022-12-29T05:00:26;8.70;99.90
40808;DHT22;26523;52.504;13.498;2022-12-29T05:02:52;8.70;99.90
40808;DHT22;26523;52.504;13.498;2022-12-29T05:05:17;8.70;99.90
40808;DHT22;26523;52.504;13.498;2022-12-29T05:07:43;8.70;99.90
40808;DHT22;26523;52.504;13.498;2022-12-29T05:10:10;8.60;99.90
40808;DHT22;26523;52.504;13.498;2022-12-29T05:12:37;8.60;99.90
40808;DHT22;26523;52.504;13.498;2022-12-29T05:15:04;8.70;99.90
40808;DHT22;26523;52.504;13.498;2022-12-29T05:17:30;8.70;99.90
40808;DHT22;26523;52.504;13.498;2022-12-29T05:19:56;8.80;99.90
40808;DHT22;26523;52.504;13.498;2022-12-29T05:22:22;8.80;99.90
40808;DHT22;26523;52.504;13.498;2022-12-29T05:24:48;8.80;99.90
40808;DHT22;26523;52.504;13.498;2022-12-29T05:27:14;8.80;99.90
40808;DHT22;26523;52.504;13.498;2022-12-29T05:29:39;8.80;99.90
40808;DHT22;26523;52.504;13.498;2022-12-29T05:32:05;8.80;99.90
40808;DHT22;26523;52.504;13.498;2022-12-29T05:34:31;8.80;99.90
40808;DHT22;26523;52.504;13.498;2022-12-29T05:36:56;8.90;99.90
40808;DHT22;26523;52.504;13.498;2022-12-29T05:39:22;8.80;99.90
40808;DHT22;26523;52.504;13.498;2022-12-29T05:41:48;8.80;99.90
40808;DHT22;26523;52.504;13.498;2022-12-29T05:44:14;8.90;99.90
40808;DHT22;26523;52.504;13.498;2022-12-29T05:46:39;8.90;99.90
40808;DHT22;26523;52.504;13.498;2022-12-29T05:49:06;8.90;99.90
40808;DHT22;26523;52.504;13.498;2022-12-29T05:51:31;9.00;99.90
40808;DHT22;26523;52.504;13.498;2022-12-29T05:53:57;9.00;99.90
40808;DHT22;26523;52.504;13.498;2022-12-29T05:56:23;9.00;99.90
40808;DHT22;26523;52.504;13.498;2022-12-29T05:58:48;9.00;99.90
40808;DHT22;26523;52.504;13.498;2022-12-29T06:01:14;9.00;99.90
40808;DHT22;26523;52.504;13.498;2022-12-29T06:03:40;9.00;99.90
40808;DHT22;26523;52.504;13.498;2022-12-29T06:06:06;9.10;99.90
40808;DHT22;26523;52.504;13.498;2022-12-29T06:08:32;9.20;99.90
40808;DHT22;26523;52.504;13.498;2022-12-29T06:10:58;9.20;99.90
40808;DHT22;26523;52.504;13.498;2022-12-29T06:13:24;9.20;99.90
40808;DHT22;26523;52.504;13.498;2022-12-29T06:15:49;9.20;99.90
40808;DHT22;26523;52.504;13.498;2022-12-29T06:18:15;9.30;99.90
40808;DHT22;26523;52.504;13.498;2022-12-29T06:20:41;9.30;99.90
40808;DHT22;26523;52.504;13.498;2022-12-29T06:23:07;9.30;99.90
40808;DHT22;26523;52.504;13.498;2022-12-29T06:25:32;9.40;99.90
40808;DHT22;26523;52.504;13.498;2022-12-29T06:27:59;9.40;99.90
40808;DHT22;26523;52.504;13.498;2022-12-29T06:30:25;9.40;99.90
40808;DHT22;26523;52.504;13.498;2022-12-29T06:32:51;9.40;99.90
40808;DHT22;26523;52.504;13.498;2022-12-29T06:35:17;9.40;99.90
40808;DHT22;26523;52.504;13.498;2022-12-29T06:37:42;9.40;99.90
40808;DHT22;26523;52.504;13.498;2022-12-29T06:40:09;9.40;99.90
40808;DHT22;26523;52.504;13.498;2022-12-29T06:42:35;9.40;99.90
40808;DHT22;26523;52.504;13.498;2022-12-29T06:45:01;9.50;99.90
40808;DHT22;26523;52.504;13.498;2022-12-29T06:47:27;9.50;99.90
40808;DHT22;26523;52.504;13.498;2022-12-29T06:49:53;9.50;99.90
40808;DHT22;26523;52.504;13.498;2022-12-29T06:52:18;9.50;99.90
40808;DHT22;26523;52.504;13.498;2022-12-29T06:54:44;9.40;99.90
40808;DHT22;26523;52.504;13.498;2022-12-29T06:57:10;9.40;99.90
40808;DHT22;26523;52.504;13.498;2022-12-29T06:59:35;9.40;99.90
40808;DHT22;26523;52.504;13.498;2022-12-29T07:02:01;9.40;99.90
40808;DHT22;26523;52.504;13.498;2022-12-29T07:04:28;9.40;99.90
40808;DHT22;26523;52.504;13.498;2022-12-29T07:06:53;9.40;99.90
40808;DHT22;26523;52.504;13.498;2022-12-29T07:09:19;9.40;99.90
40808;DHT22;26523;52.504;13.498;2022-12-29T07:11:45;9.30;99.90
40808;DHT22;26523;52.504;13.498;2022-12-29T07:14:11;9.20;99.90
40808;DHT22;26523;52.504;13.498;2022-12-29T07:16:37;9.20;99.90
40808;DHT22;26523;52.504;13.498;2022-12-29T07:19:04;9.20;99.90
40808;DHT22;26523;52.504;13.498;2022-12-29T07:21:30;9.10;99.90
40808;DHT22;26523;52.504;13.498;2022-12-29T07:23:55;9.10;99.90
40808;DHT22;26523;52.504;13.498;2022-12-29T07:26:21;9.10;99.90
40808;DHT22;26523;52.504;13.498;2022-12-29T07:28:47;9.00;99.90
40808;DHT22;26523;52.504;13.498;2022-12-29T07:31:18;9.10;99.90
40808;DHT22;26523;52.504;13.498;2022-12-29T07:33:44;9.20;99.90
40808;DHT22;26523;52.504;13.498;2022-12-29T07:36:11;9.30;99.90
40808;DHT22;26523;52.504;13.498;2022-12-29T07:38:38;9.30;99.90
40808;DHT22;26523;52.504;13.498;2022-12-29T07:41:03;9.40;99.90
40808;DHT22;26523;52.504;13.498;2022-12-29T07:43:29;9.50;99.90
40808;DHT22;26523;52.504;13.498;2022-12-29T07:45:55;9.50;99.90
40808;DHT22;26523;52.504;13.498;2022-12-29T07:48:21;9.50;99.90
40808;DHT22;26523;52.504;13.498;2022-12-29T07:50:48;9.50;99.90
40808;DHT22;26523;52.504;13.498;2022-12-29T07:53:14;9.60;99.90
40808;DHT22;26523;52.504;13.498;2022-12-29T07:55:40;9.70;99.90
40808;DHT22;26523;52.504;13.498;2022-12-29T07:58:05;9.70;99.90
40808;DHT22;26523;52.504;13.498;2022-12-29T08:00:31;9.70;99.90
40808;DHT22;26523;52.504;13.498;2022-12-29T08:02:57;9.80;99.90
40808;DHT22;26523;52.504;13.498;2022-12-29T08:05:23;9.90;99.90
40808;DHT22;26523;52.504;13.498;2022-12-29T08:07:48;9.90;99.90
40808;DHT22;26523;52.504;13.498;2022-12-29T08:10:15;9.90;99.90
40808;DHT22;26523;52.504;13.498;2022-12-29T08:12:41;10.00;99.90
40808;DHT22;26523;52.504;13.498;2022-12-29T08:15:09;9.90;99.90
40808;DHT22;26523;52.504;13.498;2022-12-29T08:17:35;10.00;99.90
40808;DHT22;26523;52.504;13.498;2022-12-29T08:20:01;10.00;99.90
40808;DHT22;26523;52.504;13.498;2022-12-29T08:22:27;10.00;99.90
40808;DHT22;26523;52.504;13.498;2022-12-29T08:24:52;10.10;99.90
40808;DHT22;26523;52.504;13.498;2022-12-29T08:27:18;10.10;99.90
40808;DHT22;26523;52.504;13.498;2022-12-29T08:29:44;10.10;99.90
40808;DHT22;26523;52.504;13.498;2022-12-29T08:32:10;10.00;99.90
40808;DHT22;26523;52.504;13.498;2022-12-29T08:34:35;10.00;99.90
40808;DHT22;26523;52.504;13.498;2022-12-29T08:37:01;10.10;99.90
40808;DHT22;26523;52.504;13.498;2022-12-29T08:39:27;10.00;99.90
40808;DHT22;26523;52.504;13.498;2022-12-29T08:41:53;10.00;99.90
40808;DHT22;26523;52.504;13.498;2022-12-29T08:44:18;10.10;99.90
40808;DHT22;26523;52.504;13.498;2022-12-29T08:46:44;10.10;99.90
40808;DHT22;26523;52.504;13.498;2022-12-29T08:49:10;10.00;99.90
40808;DHT22;26523;52.504;13.498;2022-12-29T08:51:35;10.00;99.90
40808;DHT22;26523;52.504;13.498;2022-12-29T08:54:01;10.00;99.90
40808;DHT22;26523;52.504;13.498;2022-12-29T08:56:27;10.00;99.90
40808;DHT22;26523;52.504;13.498;2022-12-29T08:58:53;9.90;99.90
40808;DHT22;26523;52.504;13.498;2022-12-29T09:01:19;9.90;99.90
40808;DHT22;26523;52.504;13.498;2022-12-29T09:03:45;9.90;99.90
40808;DHT22;26523;52.504;13.498;2022-12-29T09:06:11;9.90;99.90
40808;DHT22;26523;52.504;13.498;2022-12-29T09:08:37;9.90;99.90
40808;DHT22;26523;52.504;13.498;2022-12-29T09:11:15;9.90;99.90
40808;DHT22;26523;52.504;13.498;2022-12-29T09:13:41;10.00;99.90
40808;DHT22;26523;52.504;13.498;2022-12-29T09:16:07;10.10;99.90
40808;DHT22;26523;52.504;13.498;2022-12-29T09:18:33;10.10;99.90
40808;DHT22;26523;52.504;13.498;2022-12-29T09:21:01;10.20;99.90
40808;DHT22;26523;52.504;13.498;2022-12-29T09:23:28;10.20;99.90
40808;DHT22;26523;52.504;13.498;2022-12-29T09:25:54;10.30;99.90
40808;DHT22;26523;52.504;13.498;2022-12-29T09:28:20;10.40;99.90
40808;DHT22;26523;52.504;13.498;2022-12-29T09:30:47;10.50;99.90
40808;DHT22;26523;52.504;13.498;2022-12-29T09:33:13;10.60;99.90
40808;DHT22;26523;52.504;13.498;2022-12-29T09:35:54;10.60;99.90
40808;DHT22;26523;52.504;13.498;2022-12-29T09:38:20;10.60;99.90
40808;DHT22;26523;52.504;13.498;2022-12-29T09:46:22;10.80;99.90
40808;DHT22;26523;52.504;13.498;2022-12-29T09:48:53;10.80;99.90
40808;DHT22;26523;52.504;13.498;2022-12-29T09:51:23;10.80;99.90
40808;DHT22;26523;52.504;13.498;2022-12-29T09:53:56;10.80;99.90
40808;DHT22;26523;52.504;13.498;2022-12-29T09:56:24;10.90;99.90
40808;DHT22;26523;52.504;13.498;2022-12-29T09:58:59;11.00;99.90
40808;DHT22;26523;52.504;13.498;2022-12-29T10:01:42;11.10;99.90
40808;DHT22;26523;52.504;13.498;2022-12-29T10:04:12;11.10;99.90
40808;DHT22;26523;52.504;13.498;2022-12-29T10:07:02;11.10;99.90
40808;DHT22;26523;52.504;13.498;2022-12-29T10:20:33;11.40;99.90
40808;DHT22;26523;52.504;13.498;2022-12-29T10:25:46;11.20;99.90
40808;DHT22;26523;52.504;13.498;2022-12-29T10:28:19;11.20;99.90
40808;DHT22;26523;52.504;13.498;2022-12-29T10:30:48;11.20;99.90
40808;DHT22;26523;52.504;13.498;2022-12-29T10:33:20;11.20;99.90
40808;DHT22;26523;52.504;13.498;2022-12-29T10:35:47;11.20;99.90
40808;DHT22;26523;52.504;13.498;2022-12-29T10:41:08;11.10;99.90
40808;DHT22;26523;52.504;13.498;2022-12-29T10:43:46;11.10;99.90
40808;DHT22;26523;52.504;13.498;2022-12-29T10:46:24;11.20;99.90
40808;DHT22;26523;52.504;13.498;2022-12-29T10:48:50;11.30;99.90
40808;DHT22;26523;52.504;13.498;2022-12-29T10:51:31;11.40;99.90
40808;DHT22;26523;52.504;13.498;2022-12-29T10:54:11;11.50;99.90
40808;DHT22;26523;52.504;13.498;2022-12-29T10:56:43;11.40;99.90
40808;DHT22;26523;52.504;13.498;2022-12-29T10:59:20;11.50;99.90
40808;DHT22;26523;52.504;13.498;2022-12-29T11:07:39;11.80;99.90
40808;DHT22;26523;52.504;13.498;2022-12-29T11:10:30;11.90;99.90
40808;DHT22;26523;52.504;13.498;2022-12-29T11:13:15;12.00;99.90
40808;DHT22;26523;52.504;13.498;2022-12-29T11:15:46;12.00;99.90
40808;DHT22;26523;52.504;13.498;2022-12-29T11:18:24;12.00;99.90
40808;DHT22;26523;52.504;13.498;2022-12-29T11:20:55;12.10;99.90
40808;DHT22;26523;52.504;13.498;2022-12-29T11:23:41;12.10;99.90
40808;DHT22;26523;52.504;13.498;2022-12-29T11:28:37;12.00;99.90
40808;DHT22;26523;52.504;13.498;2022-12-29T11:31:05;12.00;99.90
40808;DHT22;26523;52.504;13.498;2022-12-29T11:33:32;12.00;99.90
40808;DHT22;26523;52.504;13.498;2022-12-29T11:36:20;12.00;99.90
40808;DHT22;26523;52.504;13.498;2022-12-29T11:38:54;12.00;99.90
40808;DHT22;26523;52.504;13.498;2022-12-29T11:41:23;12.00;99.90
40808;DHT22;26523;52.504;13.498;2022-12-29T11:43:51;11.90;99.90
40808;DHT22;26523;52.504;13.498;2022-12-29T11:46:20;12.00;99.90
40808;DHT22;26523;52.504;13.498;2022-12-29T11:48:48;12.00;99.90
40808;DHT22;26523;52.504;13.498;2022-12-29T11:51:25;12.00;99.90
40808;DHT22;26523;52.504;13.498;2022-12-29T11:53:56;12.00;99.90
40808;DHT22;26523;52.504;13.498;2022-12-29T11:56:37;11.90;99.90
40808;DHT22;26523;52.504;13.498;2022-12-29T12:02:11;11.90;99.90
40808;DHT22;26523;52.504;13.498;2022-12-29T12:04:40;11.80;99.90
40808;DHT22;26523;52.504;13.498;2022-12-29T12:07:16;11.80;99.90
40808;DHT22;26523;52.504;13.498;2022-12-29T12:09:50;11.70;99.90
40808;DHT22;26523;52.504;13.498;2022-12-29T12:12:46;11.60;99.90
40808;DHT22;26523;52.504;13.498;2022-12-29T12:15:23;11.60;99.90
40808;DHT22;26523;52.504;13.498;2022-12-29T12:17:51;11.50;99.90
40808;DHT22;26523;52.504;13.498;2022-12-29T12:20:44;11.40;99.90
40808;DHT22;26523;52.504;13.498;2022-12-29T12:23:36;11.20;99.90
40808;DHT22;26523;52.504;13.498;2022-12-29T12:26:13;11.10;99.90
40808;DHT22;26523;52.504;13.498;2022-12-29T12:28:56;11.00;99.90
40808;DHT22;26523;52.504;13.498;2022-12-29T12:32:09;10.90;99.90
40808;DHT22;26523;52.504;13.498;2022-12-29T12:34:39;10.80;99.90
40808;DHT22;26523;52.504;13.498;2022-12-29T12:37:18;10.80;99.90
40808;DHT22;26523;52.504;13.498;2022-12-29T12:45:29;10.70;99.90
40808;DHT22;26523;52.504;13.498;2022-12-29T12:50:58;10.60;99.90
40808;DHT22;26523;52.504;13.498;2022-12-29T13:02:00;10.60;99.90
40808;DHT22;26523;52.504;13.498;2022-12-29T13:10:32;10.30;99.90
40808;DHT22;26523;52.504;13.498;2022-12-29T13:16:05;10.20;99.90
40808;DHT22;26523;52.504;13.498;2022-12-29T13:19:00;10.10;99.90
40808;DHT22;26523;52.504;13.498;2022-12-29T13:26:38;9.90;99.90
40808;DHT22;26523;52.504;13.498;2022-12-29T13:31:57;9.80;99.90
40808;DHT22;26523;52.504;13.498;2022-12-29T13:34:27;9.80;99.90
40808;DHT22;26523;52.504;13.498;2022-12-29T13:37:02;9.70;99.90
40808;DHT22;26523;52.504;13.498;2022-12-29T13:39:37;9.70;99.90
40808;DHT22;26523;52.504;13.498;2022-12-29T13:42:04;9.70;99.90
40808;DHT22;26523;52.504;13.498;2022-12-29T13:44:34;9.60;99.90
40808;DHT22;26523;52.504;13.498;2022-12-29T13:47:47;9.60;99.90
40808;DHT22;26523;52.504;13.498;2022-12-29T13:49:55;9.60;99.90
40808;DHT22;26523;52.504;13.498;2022-12-29T13:52:36;9.50;99.90
40808;DHT22;26523;52.504;13.498;2022-12-29T13:55:39;9.40;99.90
40808;DHT22;26523;52.504;13.498;2022-12-29T14:01:17;9.40;99.90
40808;DHT22;26523;52.504;13.498;2022-12-29T14:03:48;9.50;99.90
40808;DHT22;26523;52.504;13.498;2022-12-29T14:06:24;9.50;99.90
40808;DHT22;26523;52.504;13.498;2022-12-29T14:09:04;9.40;99.90
40808;DHT22;26523;52.504;13.498;2022-12-29T14:11:36;9.50;99.90
40808;DHT22;26523;52.504;13.498;2022-12-29T14:14:19;9.50;99.90
40808;DHT22;26523;52.504;13.498;2022-12-29T14:16:46;9.40;99.90
40808;DHT22;26523;52.504;13.498;2022-12-29T14:19:26;9.40;99.90
40808;DHT22;26523;52.504;13.498;2022-12-29T14:26:58;9.30;99.90
40808;DHT22;26523;52.504;13.498;2022-12-29T14:31:51;9.30;99.90
40808;DHT22;26523;52.504;13.498;2022-12-29T14:39:39;9.10;99.90
40808;DHT22;26523;52.504;13.498;2022-12-29T14:44:46;9.10;99.90
40808;DHT22;26523;52.504;13.498;2022-12-29T14:47:19;9.00;99.90
40808;DHT22;26523;52.504;13.498;2022-12-29T14:49:46;8.90;99.90
40808;DHT22;26523;52.504;13.498;2022-12-29T14:52:23;8.90;99.90
40808;DHT22;26523;52.504;13.498;2022-12-29T14:54:51;8.90;99.90
40808;DHT22;26523;52.504;13.498;2022-12-29T14:57:27;8.90;99.90
40808;DHT22;26523;52.504;13.498;2022-12-29T14:59:56;8.80;99.90
40808;DHT22;26523;52.504;13.498;2022-12-29T15:02:26;8.80;99.90
40808;DHT22;26523;52.504;13.498;2022-12-29T15:04:53;8.80;99.90
40808;DHT22;26523;52.504;13.498;2022-12-29T15:07:23;8.80;99.90
40808;DHT22;26523;52.504;13.498;2022-12-29T15:09:58;8.80;99.90
40808;DHT22;26523;52.504;13.498;2022-12-29T15:12:45;8.80;99.90
40808;DHT22;26523;52.504;13.498;2022-12-29T15:15:37;8.70;99.90
40808;DHT22;26523;52.504;13.498;2022-12-29T15:18:22;8.70;99.90
40808;DHT22;26523;52.504;13.498;2022-12-29T15:20:57;8.80;99.90
40808;DHT22;26523;52.504;13.498;2022-12-29T15:23:24;8.80;99.90
40808;DHT22;26523;52.504;13.498;2022-12-29T15:25:59;8.80;99.90
40808;DHT22;26523;52.504;13.498;2022-12-29T15:28:26;9.00;99.90
40808;DHT22;26523;52.504;13.498;2022-12-29T15:30:54;9.10;99.90
40808;DHT22;26523;52.504;13.498;2022-12-29T15:33:22;9.20;99.90
40808;DHT22;26523;52.504;13.498;2022-12-29T15:35:53;9.30;99.90
40808;DHT22;26523;52.504;13.498;2022-12-29T15:38:25;9.20;99.90
40808;DHT22;26523;52.504;13.498;2022-12-29T15:40:54;9.10;99.90
40808;DHT22;26523;52.504;13.498;2022-12-29T15:46:11;8.90;99.90
40808;DHT22;26523;52.504;13.498;2022-12-29T15:48:38;8.80;99.90
40808;DHT22;26523;52.504;13.498;2022-12-29T15:51:43;8.70;99.90
40808;DHT22;26523;52.504;13.498;2022-12-29T15:54:02;8.70;99.90
40808;DHT22;26523;52.504;13.498;2022-12-29T15:56:29;8.50;99.90
40808;DHT22;26523;52.504;13.498;2022-12-29T15:58:55;8.50;99.90
40808;DHT22;26523;52.504;13.498;2022-12-29T16:01:28;8.50;99.90
40808;DHT22;26523;52.504;13.498;2022-12-29T16:03:56;8.40;99.90
40808;DHT22;26523;52.504;13.498;2022-12-29T16:09:06;8.30;99.90
40808;DHT22;26523;52.504;13.498;2022-12-29T16:11:37;8.30;99.90
40808;DHT22;26523;52.504;13.498;2022-12-29T16:14:31;8.20;99.90
40808;DHT22;26523;52.504;13.498;2022-12-29T16:17:01;8.30;99.90
40808;DHT22;26523;52.504;13.498;2022-12-29T16:19:40;8.40;99.90
40808;DHT22;26523;52.504;13.498;2022-12-29T16:22:12;8.40;99.90
40808;DHT22;26523;52.504;13.498;2022-12-29T16:24:41;8.40;99.90
40808;DHT22;26523;52.504;13.498;2022-12-29T16:27:31;8.50;99.90
40808;DHT22;26523;52.504;13.498;2022-12-29T16:30:03;8.50;99.90
40808;DHT22;26523;52.504;13.498;2022-12-29T16:32:31;8.60;99.90
40808;DHT22;26523;52.504;13.498;2022-12-29T16:37:35;8.60;99.90
40808;DHT22;26523;52.504;13.498;2022-12-29T16:42:56;8.50;99.90
40808;DHT22;26523;52.504;13.498;2022-12-29T16:50:33;8.50;99.90
40808;DHT22;26523;52.504;13.498;2022-12-29T16:53:00;8.60;99.90
40808;DHT22;26523;52.504;13.498;2022-12-29T16:55:27;8.60;99.90
40808;DHT22;26523;52.504;13.498;2022-12-29T16:57:54;8.60;99.90
40808;DHT22;26523;52.504;13.498;2022-12-29T17:00:26;8.50;99.90
40808;DHT22;26523;52.504;13.498;2022-12-29T17:02:56;8.60;99.90
40808;DHT22;26523;52.504;13.498;2022-12-29T17:05:22;8.50;99.90
40808;DHT22;26523;52.504;13.498;2022-12-29T17:07:48;8.50;99.90
40808;DHT22;26523;52.504;13.498;2022-12-29T17:10:14;8.50;99.90
40808;DHT22;26523;52.504;13.498;2022-12-29T17:12:42;8.50;99.90
40808;DHT22;26523;52.504;13.498;2022-12-29T17:15:14;8.50;99.90
40808;DHT22;26523;52.504;13.498;2022-12-29T17:17:42;8.40;99.90
40808;DHT22;26523;52.504;13.498;2022-12-29T17:22:48;8.40;99.90
40808;DHT22;26523;52.504;13.498;2022-12-29T17:25:16;8.30;99.90
40808;DHT22;26523;52.504;13.498;2022-12-29T17:27:49;8.30;99.90
40808;DHT22;26523;52.504;13.498;2022-12-29T17:30:18;8.40;99.90
40808;DHT22;26523;52.504;13.498;2022-12-29T17:32:57;8.50;99.90
40808;DHT22;26523;52.504;13.498;2022-12-29T17:35:25;8.60;99.90
40808;DHT22;26523;52.504;13.498;2022-12-29T17:37:51;8.70;99.90
40808;DHT22;26523;52.504;13.498;2022-12-29T17:40:21;8.80;99.90
40808;DHT22;26523;52.504;13.498;2022-12-29T17:42:53;8.80;99.90
40808;DHT22;26523;52.504;13.498;2022-12-29T17:45:30;8.90;99.90
40808;DHT22;26523;52.504;13.498;2022-12-29T17:47:58;9.00;99.90
40808;DHT22;26523;52.504;13.498;2022-12-29T17:50:28;9.00;99.90
40808;DHT22;26523;52.504;13.498;2022-12-29T17:52:57;9.10;99.90
40808;DHT22;26523;52.504;13.498;2022-12-29T17:55:24;9.00;99.90
40808;DHT22;26523;52.504;13.498;2022-12-29T17:57:51;8.90;99.90
40808;DHT22;26523;52.504;13.498;2022-12-29T18:00:25;9.00;99.90
40808;DHT22;26523;52.504;13.498;2022-12-29T18:02:55;8.90;99.90